sensor_id;sensor_type;location;lat;lon;timestamp;pressure;altitude;pressure_sealevel;temperature;humidity
43621;BME280;29213;50.770;7.298;2024-03-07T00:00:54;101688.75;;;3.84;58.68
43621;BME280;29213;50.770;7.298;2024-03-07T00:03:21;101728.03;;;4.04;58.68
43621;BME280;29213;50.770;7.298;2024-03-07T00:05:49;101679.94;;;3.69;58.43
43621;BME280;29213;50.770;7.298;2024-03-07T00:08:15;101660.56;;;3.56;58.96
43621;BME280;29213;50.770;7.298;2024-03-07T00:10:40;101692.88;;;3.74;58.93
43621;BME280;29213;50.770;7.298;2024-03-07T00:13:06;101664.88;;;3.57;58.87
43621;BME280;29213;50.770;7.298;2024-03-07T00:15:33;101715.28;;;3.81;58.59
43621;BME280;29213;50.770;7.298;2024-03-07T00:17:58;101723.91;;;3.83;59.18
43621;BME280;29213;50.770;7.298;2024-03-07T00:20:25;101681.63;;;3.56;58.65
43621;BME280;29213;50.770;7.298;2024-03-07T00:22:50;101690.97;;;3.61;58.68
43621;BME280;29213;50.770;7.298;2024-03-07T00:25:16;101657.13;;;3.39;58.80
43621;BME280;29213;50.770;7.298;2024-03-07T00:27:44;101691.13;;;3.58;58.60
43621;BME280;29213;50.770;7.298;2024-03-07T00:30:10;101684.72;;;3.48;58.56
43621;BME280;29213;50.770;7.298;2024-03-07T00:32:38;101657.06;;;3.25;59.05
43621;BME280;29213;50.770;7.298;2024-03-07T00:35:08;101651.50;;;3.15;59.29
43621;BME280;29213;50.770;7.298;2024-03-07T00:37:34;101703.44;;;3.43;59.29
43621;BME280;29213;50.770;7.298;2024-03-07T00:39:59;101687.84;;;3.24;59.35
43621;BME280;29213;50.770;7.298;2024-03-07T00:42:25;101681.78;;;3.22;59.74
43621;BME280;29213;50.770;7.298;2024-03-07T00:44:52;101727.38;;;3.39;59.58
43621;BME280;29213;50.770;7.298;2024-03-07T00:47:18;101720.34;;;3.39;59.62
43621;BME280;29213;50.770;7.298;2024-03-07T00:49:44;101719.06;;;3.30;59.53
43621;BME280;29213;50.770;7.298;2024-03-07T00:52:12;101715.34;;;3.34;59.46
43621;BME280;29213;50.770;7.298;2024-03-07T00:54:37;101686.81;;;3.11;59.46
43621;BME280;29213;50.770;7.298;2024-03-07T00:57:03;101691.06;;;3.13;59.15
43621;BME280;29213;50.770;7.298;2024-03-07T00:59:29;101716.03;;;3.22;59.36
43621;BME280;29213;50.770;7.298;2024-03-07T01:01:55;101663.88;;;2.82;59.54
43621;BME280;29213;50.770;7.298;2024-03-07T01:04:20;101690.69;;;2.89;59.73
43621;BME280;29213;50.770;7.298;2024-03-07T01:06:46;101668.69;;;2.74;59.37
43621;BME280;29213;50.770;7.298;2024-03-07T01:09:12;101691.13;;;2.81;59.98
43621;BME280;29213;50.770;7.298;2024-03-07T01:11:44;101727.78;;;3.00;59.60
43621;BME280;29213;50.770;7.298;2024-03-07T01:14:13;101722.84;;;2.94;60.07
43621;BME280;29213;50.770;7.298;2024-03-07T01:16:38;101729.31;;;2.88;59.67
43621;BME280;29213;50.770;7.298;2024-03-07T01:19:04;101689.16;;;2.52;60.03
43621;BME280;29213;50.770;7.298;2024-03-07T01:21:35;101685.84;;;2.49;60.80
43621;BME280;29213;50.770;7.298;2024-03-07T01:24:01;101719.69;;;2.71;60.66
43621;BME280;29213;50.770;7.298;2024-03-07T01:26:28;101721.59;;;2.69;60.06
43621;BME280;29213;50.770;7.298;2024-03-07T01:28:54;101678.53;;;2.38;60.12
43621;BME280;29213;50.770;7.298;2024-03-07T01:31:21;101706.63;;;2.53;60.38
43621;BME280;29213;50.770;7.298;2024-03-07T01:33:47;101653.31;;;2.18;60.37
43621;BME280;29213;50.770;7.298;2024-03-07T01:36:12;101681.41;;;2.33;60.14
43621;BME280;29213;50.770;7.298;2024-03-07T01:38:38;101656.94;;;2.15;60.27
43621;BME280;29213;50.770;7.298;2024-03-07T01:41:03;101623.75;;;1.96;60.45
43621;BME280;29213;50.770;7.298;2024-03-07T01:43:28;101701.88;;;2.44;60.79
43621;BME280;29213;50.770;7.298;2024-03-07T01:45:57;101698.31;;;2.45;60.50
43621;BME280;29213;50.770;7.298;2024-03-07T01:48:27;101705.34;;;2.45;60.78
43621;BME280;29213;50.770;7.298;2024-03-07T01:50:59;101657.06;;;2.13;60.38
43621;BME280;29213;50.770;7.298;2024-03-07T01:53:26;101700.34;;;2.40;60.13
43621;BME280;29213;50.770;7.298;2024-03-07T01:55:52;101693.19;;;2.26;60.21
43621;BME280;29213;50.770;7.298;2024-03-07T01:58:21;101673.06;;;2.09;60.00
43621;BME280;29213;50.770;7.298;2024-03-07T02:00:46;101612.44;;;1.78;60.48
43621;BME280;29213;50.770;7.298;2024-03-07T02:03:13;101598.94;;;1.68;60.33
43621;BME280;29213;50.770;7.298;2024-03-07T02:05:39;101653.72;;;1.92;60.33
43621;BME280;29213;50.770;7.298;2024-03-07T02:08:05;101662.47;;;1.93;59.79
43621;BME280;29213;50.770;7.298;2024-03-07T02:10:30;101593.78;;;1.49;60.00
43621;BME280;29213;50.770;7.298;2024-03-07T02:12:55;101650.22;;;1.75;60.81
43621;BME280;29213;50.770;7.298;2024-03-07T02:15:21;101637.97;;;1.58;60.38
43621;BME280;29213;50.770;7.298;2024-03-07T02:17:46;101687.91;;;1.92;61.02
43621;BME280;29213;50.770;7.298;2024-03-07T02:20:12;101630.09;;;1.58;60.93
43621;BME280;29213;50.770;7.298;2024-03-07T02:22:38;101615.72;;;1.48;60.99
43621;BME280;29213;50.770;7.298;2024-03-07T02:25:05;101617.28;;;1.52;60.84
43621;BME280;29213;50.770;7.298;2024-03-07T02:27:31;101655.03;;;1.67;60.73
43621;BME280;29213;50.770;7.298;2024-03-07T02:29:56;101607.56;;;1.37;60.68
43621;BME280;29213;50.770;7.298;2024-03-07T02:32:22;101632.16;;;1.52;60.75
43621;BME280;29213;50.770;7.298;2024-03-07T02:34:48;101688.47;;;1.81;61.34
43621;BME280;29213;50.770;7.298;2024-03-07T02:37:14;101621.44;;;1.39;61.08
43621;BME280;29213;50.770;7.298;2024-03-07T02:39:39;101602.69;;;1.29;60.69
43621;BME280;29213;50.770;7.298;2024-03-07T02:42:05;101567.91;;;1.07;60.22
43621;BME280;29213;50.770;7.298;2024-03-07T02:44:31;101611.00;;;1.37;60.74
43621;BME280;29213;50.770;7.298;2024-03-07T02:46:58;101622.84;;;1.46;60.57
43621;BME280;29213;50.770;7.298;2024-03-07T02:49:23;101564.47;;;1.05;61.16
43621;BME280;29213;50.770;7.298;2024-03-07T02:51:49;101638.50;;;1.47;60.55
43621;BME280;29213;50.770;7.298;2024-03-07T02:54:14;101594.28;;;1.22;60.80
43621;BME280;29213;50.770;7.298;2024-03-07T02:56:40;101611.44;;;1.29;60.49
43621;BME280;29213;50.770;7.298;2024-03-07T02:59:05;101623.75;;;1.27;60.74
43621;BME280;29213;50.770;7.298;2024-03-07T03:01:32;101621.00;;;1.30;61.02
43621;BME280;29213;50.770;7.298;2024-03-07T03:03:58;101603.94;;;1.21;60.73
43621;BME280;29213;50.770;7.298;2024-03-07T03:06:23;101640.69;;;1.39;60.30
43621;BME280;29213;50.770;7.298;2024-03-07T03:08:48;101671.25;;;1.58;60.77
43621;BME280;29213;50.770;7.298;2024-03-07T03:11:14;101673.94;;;1.56;60.54
43621;BME280;29213;50.770;7.298;2024-03-07T03:13:43;101610.03;;;1.22;60.55
43621;BME280;29213;50.770;7.298;2024-03-07T03:16:09;101630.56;;;1.31;60.61
43621;BME280;29213;50.770;7.298;2024-03-07T03:18:37;101606.63;;;1.20;60.24
43621;BME280;29213;50.770;7.298;2024-03-07T03:21:03;101571.09;;;0.95;60.21
43621;BME280;29213;50.770;7.298;2024-03-07T03:23:28;101550.28;;;0.74;60.40
43621;BME280;29213;50.770;7.298;2024-03-07T03:25:54;101588.78;;;0.91;60.30
43621;BME280;29213;50.770;7.298;2024-03-07T03:28:21;101530.81;;;0.61;60.18
43621;BME280;29213;50.770;7.298;2024-03-07T03:30:47;101584.53;;;0.89;60.81
43621;BME280;29213;50.770;7.298;2024-03-07T03:33:12;101620.13;;;1.12;60.64
43621;BME280;29213;50.770;7.298;2024-03-07T03:35:38;101564.41;;;0.72;60.68
43621;BME280;29213;50.770;7.298;2024-03-07T03:38:04;101642.69;;;1.16;60.38
43621;BME280;29213;50.770;7.298;2024-03-07T03:40:30;101648.75;;;0.99;60.71
43621;BME280;29213;50.770;7.298;2024-03-07T03:42:56;101633.31;;;0.93;60.99
43621;BME280;29213;50.770;7.298;2024-03-07T03:45:22;101646.75;;;1.04;61.29
43621;BME280;29213;50.770;7.298;2024-03-07T03:47:47;101629.00;;;0.92;61.22
43621;BME280;29213;50.770;7.298;2024-03-07T03:50:13;101580.56;;;0.62;60.74
43621;BME280;29213;50.770;7.298;2024-03-07T03:52:42;101548.91;;;0.48;60.45
43621;BME280;29213;50.770;7.298;2024-03-07T03:55:08;101515.72;;;0.29;60.58
43621;BME280;29213;50.770;7.298;2024-03-07T03:57:40;101637.13;;;1.05;60.64
43621;BME280;29213;50.770;7.298;2024-03-07T04:00:07;101638.81;;;1.06;60.58
43621;BME280;29213;50.770;7.298;2024-03-07T04:02:38;101646.81;;;1.03;61.15
43621;BME280;29213;50.770;7.298;2024-03-07T04:05:04;101521.97;;;0.26;60.72
43621;BME280;29213;50.770;7.298;2024-03-07T04:07:30;101582.44;;;0.60;60.91
43621;BME280;29213;50.770;7.298;2024-03-07T04:09:56;101573.13;;;0.53;60.62
43621;BME280;29213;50.770;7.298;2024-03-07T04:12:23;101579.88;;;0.59;60.70
43621;BME280;29213;50.770;7.298;2024-03-07T04:14:48;101633.44;;;0.90;60.77
43621;BME280;29213;50.770;7.298;2024-03-07T04:17:14;101577.63;;;0.51;61.26
43621;BME280;29213;50.770;7.298;2024-03-07T04:19:40;101635.31;;;0.88;60.61
43621;BME280;29213;50.770;7.298;2024-03-07T04:22:06;101631.06;;;0.85;60.73
43621;BME280;29213;50.770;7.298;2024-03-07T04:24:34;101578.78;;;0.45;61.20
43621;BME280;29213;50.770;7.298;2024-03-07T04:27:00;101606.78;;;0.62;60.86
43621;BME280;29213;50.770;7.298;2024-03-07T04:29:27;101638.22;;;0.81;61.34
43621;BME280;29213;50.770;7.298;2024-03-07T04:31:52;101628.50;;;0.84;61.36
43621;BME280;29213;50.770;7.298;2024-03-07T04:34:18;101626.75;;;0.84;61.59
43621;BME280;29213;50.770;7.298;2024-03-07T04:36:44;101549.72;;;0.31;61.15
43621;BME280;29213;50.770;7.298;2024-03-07T04:39:09;101601.41;;;0.65;60.99
43621;BME280;29213;50.770;7.298;2024-03-07T04:41:48;101599.91;;;0.60;60.93
43621;BME280;29213;50.770;7.298;2024-03-07T04:44:13;101611.47;;;0.55;60.90
43621;BME280;29213;50.770;7.298;2024-03-07T04:46:39;101573.16;;;0.34;61.28
43621;BME280;29213;50.770;7.298;2024-03-07T04:49:08;101551.09;;;0.20;61.19
43621;BME280;29213;50.770;7.298;2024-03-07T04:51:34;101627.41;;;0.70;61.25
43621;BME280;29213;50.770;7.298;2024-03-07T04:53:59;101600.09;;;0.57;61.23
43621;BME280;29213;50.770;7.298;2024-03-07T04:56:25;101634.41;;;0.70;60.96
43621;BME280;29213;50.770;7.298;2024-03-07T04:58:50;101483.94;;;-0.19;61.10
43621;BME280;29213;50.770;7.298;2024-03-07T05:01:15;101571.47;;;0.33;60.92
43621;BME280;29213;50.770;7.298;2024-03-07T05:03:41;101561.28;;;0.26;61.27
43621;BME280;29213;50.770;7.298;2024-03-07T05:06:07;101629.16;;;0.70;61.03
43621;BME280;29213;50.770;7.298;2024-03-07T05:08:33;101592.78;;;0.44;60.77
43621;BME280;29213;50.770;7.298;2024-03-07T05:10:58;101638.03;;;0.67;60.69
43621;BME280;29213;50.770;7.298;2024-03-07T05:13:24;101596.25;;;0.45;60.32
43621;BME280;29213;50.770;7.298;2024-03-07T05:15:49;101578.56;;;0.31;60.72
43621;BME280;29213;50.770;7.298;2024-03-07T05:18:16;101593.28;;;0.33;60.72
43621;BME280;29213;50.770;7.298;2024-03-07T05:20:42;101617.00;;;0.49;60.49
43621;BME280;29213;50.770;7.298;2024-03-07T05:23:07;101568.72;;;0.17;60.56
43621;BME280;29213;50.770;7.298;2024-03-07T05:25:33;101626.50;;;0.52;60.80
43621;BME280;29213;50.770;7.298;2024-03-07T05:27:58;101637.63;;;0.57;60.62
43621;BME280;29213;50.770;7.298;2024-03-07T05:30:24;101604.34;;;0.40;60.47
43621;BME280;29213;50.770;7.298;2024-03-07T05:32:51;101624.81;;;0.51;60.66
43621;BME280;29213;50.770;7.298;2024-03-07T05:35:16;101572.41;;;0.12;60.36
43621;BME280;29213;50.770;7.298;2024-03-07T05:37:41;101582.59;;;0.19;60.70
43621;BME280;29213;50.770;7.298;2024-03-07T05:40:12;101634.41;;;0.50;60.79
43621;BME280;29213;50.770;7.298;2024-03-07T05:42:38;101607.38;;;0.31;60.85
43621;BME280;29213;50.770;7.298;2024-03-07T05:45:03;101619.84;;;0.45;61.06
43621;BME280;29213;50.770;7.298;2024-03-07T05:47:33;101635.28;;;0.51;60.94
43621;BME280;29213;50.770;7.298;2024-03-07T05:49:59;101623.41;;;0.44;61.04
43621;BME280;29213;50.770;7.298;2024-03-07T05:52:24;101555.63;;;-0.03;61.07
43621;BME280;29213;50.770;7.298;2024-03-07T05:54:49;101592.09;;;0.21;60.96
43621;BME280;29213;50.770;7.298;2024-03-07T05:57:15;101621.13;;;0.36;61.00
43621;BME280;29213;50.770;7.298;2024-03-07T05:59:40;101616.66;;;0.38;61.07
43621;BME280;29213;50.770;7.298;2024-03-07T06:02:06;101633.59;;;0.50;61.12
43621;BME280;29213;50.770;7.298;2024-03-07T06:04:31;101482.22;;;-0.40;60.84
43621;BME280;29213;50.770;7.298;2024-03-07T06:06:58;101541.66;;;-0.03;60.95
43621;BME280;29213;50.770;7.298;2024-03-07T06:09:23;101632.72;;;0.49;60.67
43621;BME280;29213;50.770;7.298;2024-03-07T06:11:49;101633.88;;;0.44;60.87
43621;BME280;29213;50.770;7.298;2024-03-07T06:14:14;101567.72;;;-0.00;60.97
43621;BME280;29213;50.770;7.298;2024-03-07T06:16:41;101564.13;;;0.03;61.27
43621;BME280;29213;50.770;7.298;2024-03-07T06:19:08;101631.19;;;0.45;61.03
43621;BME280;29213;50.770;7.298;2024-03-07T06:21:35;101629.34;;;0.47;60.89
43621;BME280;29213;50.770;7.298;2024-03-07T06:24:02;101632.88;;;0.46;60.72
43621;BME280;29213;50.770;7.298;2024-03-07T06:26:32;101501.97;;;-0.32;60.65
43621;BME280;29213;50.770;7.298;2024-03-07T06:29:24;101632.19;;;0.43;60.91
43621;BME280;29213;50.770;7.298;2024-03-07T06:31:50;101583.75;;;0.13;60.87
43621;BME280;29213;50.770;7.298;2024-03-07T06:34:15;101629.56;;;0.43;60.93
43621;BME280;29213;50.770;7.298;2024-03-07T06:36:42;101544.63;;;-0.11;61.10
43621;BME280;29213;50.770;7.298;2024-03-07T06:39:07;101628.63;;;0.44;61.22
43621;BME280;29213;50.770;7.298;2024-03-07T06:41:35;101608.25;;;0.31;61.23
43621;BME280;29213;50.770;7.298;2024-03-07T06:44:01;101637.13;;;0.49;61.34
43621;BME280;29213;50.770;7.298;2024-03-07T06:46:27;101579.03;;;0.20;61.44
43621;BME280;29213;50.770;7.298;2024-03-07T06:48:52;101601.44;;;0.27;61.14
43621;BME280;29213;50.770;7.298;2024-03-07T06:51:18;101621.53;;;0.46;61.22
43621;BME280;29213;50.770;7.298;2024-03-07T06:53:44;101539.78;;;0.00;61.46
43621;BME280;29213;50.770;7.298;2024-03-07T06:56:12;101559.94;;;0.18;61.51
43621;BME280;29213;50.770;7.298;2024-03-07T06:58:38;101591.94;;;0.44;61.08
43621;BME280;29213;50.770;7.298;2024-03-07T07:01:04;101638.03;;;0.67;61.21
43621;BME280;29213;50.770;7.298;2024-03-07T07:03:34;101639.66;;;0.70;61.12
43621;BME280;29213;50.770;7.298;2024-03-07T07:06:00;101616.72;;;0.55;61.08
43621;BME280;29213;50.770;7.298;2024-03-07T07:08:26;101603.81;;;0.51;61.55
43621;BME280;29213;50.770;7.298;2024-03-07T07:10:53;101583.44;;;0.38;61.20
43621;BME280;29213;50.770;7.298;2024-03-07T07:13:19;101622.22;;;0.68;61.60
43621;BME280;29213;50.770;7.298;2024-03-07T07:15:44;101642.16;;;0.90;61.14
43621;BME280;29213;50.770;7.298;2024-03-07T07:18:10;101561.94;;;0.49;61.13
43621;BME280;29213;50.770;7.298;2024-03-07T07:20:36;101636.69;;;0.95;61.63
43621;BME280;29213;50.770;7.298;2024-03-07T07:23:01;101618.97;;;1.00;61.16
43621;BME280;29213;50.770;7.298;2024-03-07T07:25:30;101635.50;;;1.20;61.31
43621;BME280;29213;50.770;7.298;2024-03-07T07:27:55;101599.22;;;1.11;60.86
43621;BME280;29213;50.770;7.298;2024-03-07T07:30:22;101598.53;;;1.25;61.01
43621;BME280;29213;50.770;7.298;2024-03-07T07:32:48;101583.56;;;1.27;60.49
43621;BME280;29213;50.770;7.298;2024-03-07T07:35:14;101598.97;;;1.51;61.00
43621;BME280;29213;50.770;7.298;2024-03-07T07:37:41;101630.06;;;1.76;60.40
43621;BME280;29213;50.770;7.298;2024-03-07T07:40:07;101592.53;;;1.74;61.20
43621;BME280;29213;50.770;7.298;2024-03-07T07:42:38;101556.97;;;1.51;61.74
43621;BME280;29213;50.770;7.298;2024-03-07T07:45:08;101570.09;;;1.51;62.24
43621;BME280;29213;50.770;7.298;2024-03-07T07:47:47;101556.09;;;1.50;62.16
43621;BME280;29213;50.770;7.298;2024-03-07T07:50:18;101612.97;;;1.85;63.61
43621;BME280;29213;50.770;7.298;2024-03-07T07:55:14;101545.78;;;1.47;63.29
43621;BME280;29213;50.770;7.298;2024-03-07T07:57:44;101544.59;;;1.53;63.48
43621;BME280;29213;50.770;7.298;2024-03-07T08:00:14;101560.22;;;1.72;63.36
43621;BME280;29213;50.770;7.298;2024-03-07T08:03:03;101601.00;;;2.13;63.24
43621;BME280;29213;50.770;7.298;2024-03-07T08:05:32;101604.06;;;2.37;62.43
43621;BME280;29213;50.770;7.298;2024-03-07T08:07:59;101557.44;;;2.25;62.23
43621;BME280;29213;50.770;7.298;2024-03-07T08:10:26;101564.72;;;2.36;62.27
43621;BME280;29213;50.770;7.298;2024-03-07T08:12:54;101552.00;;;2.44;61.96
43621;BME280;29213;50.770;7.298;2024-03-07T08:15:20;101594.16;;;2.89;61.85
43621;BME280;29213;50.770;7.298;2024-03-07T08:17:47;101590.16;;;2.98;61.68
43621;BME280;29213;50.770;7.298;2024-03-07T08:20:14;101582.91;;;3.02;60.63
43621;BME280;29213;50.770;7.298;2024-03-07T08:22:41;101558.03;;;3.07;60.36
43621;BME280;29213;50.770;7.298;2024-03-07T08:25:11;101578.56;;;3.17;60.63
43621;BME280;29213;50.770;7.298;2024-03-07T08:27:41;101583.53;;;3.21;60.37
43621;BME280;29213;50.770;7.298;2024-03-07T08:30:08;101506.38;;;2.76;60.38
43621;BME280;29213;50.770;7.298;2024-03-07T08:32:39;101587.78;;;3.39;60.07
43621;BME280;29213;50.770;7.298;2024-03-07T08:35:06;101585.84;;;3.42;59.16
43621;BME280;29213;50.770;7.298;2024-03-07T08:37:42;101579.69;;;3.27;59.27
43621;BME280;29213;50.770;7.298;2024-03-07T08:40:09;101592.72;;;3.59;59.02
43621;BME280;29213;50.770;7.298;2024-03-07T08:42:38;101583.13;;;3.87;58.64
43621;BME280;29213;50.770;7.298;2024-03-07T08:45:05;101482.94;;;3.45;58.15
43621;BME280;29213;50.770;7.298;2024-03-07T08:47:31;101531.91;;;3.92;57.75
43621;BME280;29213;50.770;7.298;2024-03-07T08:49:57;101584.19;;;4.27;56.63
43621;BME280;29213;50.770;7.298;2024-03-07T08:52:22;101530.94;;;4.07;56.25
43621;BME280;29213;50.770;7.298;2024-03-07T08:54:48;101577.56;;;4.34;55.45
43621;BME280;29213;50.770;7.298;2024-03-07T08:57:13;101554.50;;;4.38;55.82
43621;BME280;29213;50.770;7.298;2024-03-07T08:59:42;101581.56;;;4.69;55.56
43621;BME280;29213;50.770;7.298;2024-03-07T09:02:09;101578.31;;;4.78;54.39
43621;BME280;29213;50.770;7.298;2024-03-07T09:04:35;101568.66;;;4.64;54.28
43621;BME280;29213;50.770;7.298;2024-03-07T09:07:01;101563.25;;;4.53;54.04
43621;BME280;29213;50.770;7.298;2024-03-07T09:09:26;101582.16;;;4.60;54.15
43621;BME280;29213;50.770;7.298;2024-03-07T09:11:52;101584.28;;;4.67;54.41
43621;BME280;29213;50.770;7.298;2024-03-07T09:14:17;101509.22;;;4.31;54.03
43621;BME280;29213;50.770;7.298;2024-03-07T09:16:43;101564.91;;;4.81;53.43
43621;BME280;29213;50.770;7.298;2024-03-07T09:19:09;101544.19;;;4.62;53.10
43621;BME280;29213;50.770;7.298;2024-03-07T09:21:40;101540.44;;;4.52;53.04
43621;BME280;29213;50.770;7.298;2024-03-07T09:24:06;101561.28;;;4.69;53.42
43621;BME280;29213;50.770;7.298;2024-03-07T09:26:33;101561.03;;;4.87;53.73
43621;BME280;29213;50.770;7.298;2024-03-07T09:28:59;101576.25;;;5.09;53.32
43621;BME280;29213;50.770;7.298;2024-03-07T09:31:33;101523.34;;;4.85;51.79
43621;BME280;29213;50.770;7.298;2024-03-07T09:33:59;101577.13;;;5.10;52.32
43621;BME280;29213;50.770;7.298;2024-03-07T09:36:25;101534.28;;;4.79;51.99
43621;BME280;29213;50.770;7.298;2024-03-07T09:38:50;101558.44;;;5.13;52.62
43621;BME280;29213;50.770;7.298;2024-03-07T09:41:16;101466.19;;;4.71;51.92
43621;BME280;29213;50.770;7.298;2024-03-07T09:43:51;101569.84;;;5.40;51.54
43621;BME280;29213;50.770;7.298;2024-03-07T09:46:21;101468.16;;;4.67;51.52
43621;BME280;29213;50.770;7.298;2024-03-07T09:48:49;101561.94;;;5.40;52.18
43621;BME280;29213;50.770;7.298;2024-03-07T09:51:19;101516.59;;;5.20;51.20
43621;BME280;29213;50.770;7.298;2024-03-07T09:53:48;101527.25;;;5.31;51.00
43621;BME280;29213;50.770;7.298;2024-03-07T09:56:17;101486.19;;;5.27;50.85
43621;BME280;29213;50.770;7.298;2024-03-07T09:58:50;101528.22;;;5.43;51.01
43621;BME280;29213;50.770;7.298;2024-03-07T10:01:27;101494.47;;;5.60;51.42
43621;BME280;29213;50.770;7.298;2024-03-07T10:03:58;101474.13;;;5.73;51.46
43621;BME280;29213;50.770;7.298;2024-03-07T10:06:24;101486.63;;;6.09;50.26
43621;BME280;29213;50.770;7.298;2024-03-07T10:08:50;101494.88;;;6.28;48.92
43621;BME280;29213;50.770;7.298;2024-03-07T10:11:15;101512.97;;;6.59;49.37
43621;BME280;29213;50.770;7.298;2024-03-07T10:13:40;101475.50;;;6.52;48.83
43621;BME280;29213;50.770;7.298;2024-03-07T10:16:07;101473.53;;;6.67;48.18
43621;BME280;29213;50.770;7.298;2024-03-07T10:18:37;101515.88;;;7.03;48.48
43621;BME280;29213;50.770;7.298;2024-03-07T10:21:06;101452.91;;;6.24;45.68
43621;BME280;29213;50.770;7.298;2024-03-07T10:23:31;101450.88;;;6.27;46.73
43621;BME280;29213;50.770;7.298;2024-03-07T10:25:59;101493.25;;;6.39;47.52
43621;BME280;29213;50.770;7.298;2024-03-07T10:28:26;101458.03;;;6.14;46.84
43621;BME280;29213;50.770;7.298;2024-03-07T10:30:52;101477.22;;;6.53;47.75
43621;BME280;29213;50.770;7.298;2024-03-07T10:33:17;101497.50;;;6.77;46.40
43621;BME280;29213;50.770;7.298;2024-03-07T10:35:46;101425.28;;;6.64;46.96
43621;BME280;29213;50.770;7.298;2024-03-07T10:38:12;101473.59;;;7.02;46.07
43621;BME280;29213;50.770;7.298;2024-03-07T10:40:38;101491.09;;;7.39;44.95
43621;BME280;29213;50.770;7.298;2024-03-07T10:43:09;101434.09;;;6.87;44.97
43621;BME280;29213;50.770;7.298;2024-03-07T10:45:44;101474.66;;;6.88;45.39
43621;BME280;29213;50.770;7.298;2024-03-07T10:48:12;101478.78;;;6.32;45.74
43621;BME280;29213;50.770;7.298;2024-03-07T10:50:52;101481.16;;;6.48;46.84
43621;BME280;29213;50.770;7.298;2024-03-07T10:58:58;101459.91;;;6.61;46.13
43621;BME280;29213;50.770;7.298;2024-03-07T11:01:25;101429.97;;;6.72;45.47
43621;BME280;29213;50.770;7.298;2024-03-07T11:03:51;101411.00;;;7.12;46.48
43621;BME280;29213;50.770;7.298;2024-03-07T11:06:17;101451.88;;;7.76;45.79
43621;BME280;29213;50.770;7.298;2024-03-07T11:08:43;101472.00;;;8.35;45.20
43621;BME280;29213;50.770;7.298;2024-03-07T11:11:11;101471.44;;;8.52;43.72
43621;BME280;29213;50.770;7.298;2024-03-07T11:13:38;101450.03;;;8.54;44.17
43621;BME280;29213;50.770;7.298;2024-03-07T11:16:05;101437.03;;;8.93;43.93
43621;BME280;29213;50.770;7.298;2024-03-07T11:18:31;101414.69;;;8.75;43.05
43621;BME280;29213;50.770;7.298;2024-03-07T11:20:56;101436.78;;;8.75;42.80
43621;BME280;29213;50.770;7.298;2024-03-07T11:26:05;101453.59;;;8.64;43.78
43621;BME280;29213;50.770;7.298;2024-03-07T11:28:33;101423.88;;;8.49;44.05
43621;BME280;29213;50.770;7.298;2024-03-07T11:31:09;101456.06;;;8.56;42.66
43621;BME280;29213;50.770;7.298;2024-03-07T11:33:37;101445.53;;;8.45;43.58
43621;BME280;29213;50.770;7.298;2024-03-07T11:36:10;101410.50;;;8.29;43.65
43621;BME280;29213;50.770;7.298;2024-03-07T11:38:48;101410.97;;;8.23;43.91
43621;BME280;29213;50.770;7.298;2024-03-07T11:41:19;101406.19;;;8.17;44.87
43621;BME280;29213;50.770;7.298;2024-03-07T11:43:44;101397.72;;;8.23;43.03
43621;BME280;29213;50.770;7.298;2024-03-07T11:46:10;101410.28;;;8.21;43.19
43621;BME280;29213;50.770;7.298;2024-03-07T11:48:42;101413.09;;;8.41;43.28
43621;BME280;29213;50.770;7.298;2024-03-07T11:51:07;101383.81;;;7.98;44.24
43621;BME280;29213;50.770;7.298;2024-03-07T11:53:38;101349.16;;;7.46;43.96
43621;BME280;29213;50.770;7.298;2024-03-07T11:56:04;101324.25;;;7.37;43.41
43621;BME280;29213;50.770;7.298;2024-03-07T11:58:38;101380.00;;;7.35;43.82
43621;BME280;29213;50.770;7.298;2024-03-07T12:01:06;101404.56;;;7.93;45.49
43621;BME280;29213;50.770;7.298;2024-03-07T12:03:36;101332.16;;;7.48;44.35
43621;BME280;29213;50.770;7.298;2024-03-07T12:06:02;101345.97;;;7.63;43.47
43621;BME280;29213;50.770;7.298;2024-03-07T12:08:28;101331.06;;;7.51;43.20
43621;BME280;29213;50.770;7.298;2024-03-07T12:10:55;101393.31;;;7.80;43.74
43621;BME280;29213;50.770;7.298;2024-03-07T12:13:22;101342.38;;;7.53;44.87
43621;BME280;29213;50.770;7.298;2024-03-07T12:15:48;101397.00;;;8.21;46.07
43621;BME280;29213;50.770;7.298;2024-03-07T12:18:17;101398.69;;;7.89;45.07
43621;BME280;29213;50.770;7.298;2024-03-07T12:20:44;101394.81;;;7.94;44.93
43621;BME280;29213;50.770;7.298;2024-03-07T12:23:15;101400.19;;;8.15;44.98
43621;BME280;29213;50.770;7.298;2024-03-07T12:25:44;101369.09;;;8.06;45.01
43621;BME280;29213;50.770;7.298;2024-03-07T12:28:13;101330.16;;;7.73;44.92
43621;BME280;29213;50.770;7.298;2024-03-07T12:30:52;101389.91;;;8.22;44.79
43621;BME280;29213;50.770;7.298;2024-03-07T12:33:20;101342.19;;;8.10;45.07
43621;BME280;29213;50.770;7.298;2024-03-07T12:35:47;101369.94;;;8.27;44.93
43621;BME280;29213;50.770;7.298;2024-03-07T12:38:13;101322.00;;;7.86;44.99
43621;BME280;29213;50.770;7.298;2024-03-07T12:40:40;101378.09;;;7.38;44.96
43621;BME280;29213;50.770;7.298;2024-03-07T12:43:14;101322.03;;;7.09;45.56
43621;BME280;29213;50.770;7.298;2024-03-07T12:45:53;101321.13;;;7.32;45.90
43621;BME280;29213;50.770;7.298;2024-03-07T12:48:23;101329.44;;;7.27;45.63
43621;BME280;29213;50.770;7.298;2024-03-07T12:50:49;101348.09;;;7.70;45.01
43621;BME280;29213;50.770;7.298;2024-03-07T12:53:24;101347.13;;;7.82;44.71
43621;BME280;29213;50.770;7.298;2024-03-07T12:55:54;101309.13;;;7.82;44.49
43621;BME280;29213;50.770;7.298;2024-03-07T12:58:19;101350.16;;;8.84;43.50
43621;BME280;29213;50.770;7.298;2024-03-07T13:00:45;101319.84;;;8.96;42.56
43621;BME280;29213;50.770;7.298;2024-03-07T13:03:10;101345.88;;;9.54;41.37
43621;BME280;29213;50.770;7.298;2024-03-07T13:05:39;101277.66;;;10.12;40.17
43621;BME280;29213;50.770;7.298;2024-03-07T13:08:09;101323.97;;;11.33;37.84
43621;BME280;29213;50.770;7.298;2024-03-07T13:10:46;101314.16;;;11.05;38.08